sensor_id;sensor_type;location;lat;lon;timestamp;P1;durP1;ratioP1;P2;durP2;ratioP2
83245;SDS011;73140;46.754;17.714;2024-01-30T00:02:12;12.23;;;5.18;;
83245;SDS011;73140;46.754;17.714;2024-01-30T00:04:39;11.88;;;4.80;;
83245;SDS011;73140;46.754;17.714;2024-01-30T00:07:05;7.35;;;4.63;;
83245;SDS011;73140;46.754;17.714;2024-01-30T00:09:31;8.15;;;4.65;;
83245;SDS011;73140;46.754;17.714;2024-01-30T00:11:58;9.05;;;4.63;;
83245;SDS011;73140;46.754;17.714;2024-01-30T00:14:24;10.05;;;5.22;;
83245;SDS011;73140;46.754;17.714;2024-01-30T00:16:50;10.02;;;5.07;;
83245;SDS011;73140;46.754;17.714;2024-01-30T00:19:16;12.63;;;4.93;;
83245;SDS011;73140;46.754;17.714;2024-01-30T00:21:44;9.45;;;4.82;;
83245;SDS011;73140;46.754;17.714;2024-01-30T00:24:10;7.63;;;4.53;;
83245;SDS011;73140;46.754;17.714;2024-01-30T00:26:36;9.02;;;5.13;;
83245;SDS011;73140;46.754;17.714;2024-01-30T00:29:02;10.15;;;5.03;;
83245;SDS011;73140;46.754;17.714;2024-01-30T00:31:28;11.23;;;5.30;;
83245;SDS011;73140;46.754;17.714;2024-01-30T00:33:54;7.95;;;5.05;;
83245;SDS011;73140;46.754;17.714;2024-01-30T00:36:21;10.07;;;5.13;;
83245;SDS011;73140;46.754;17.714;2024-01-30T00:38:48;7.00;;;4.70;;
83245;SDS011;73140;46.754;17.714;2024-01-30T00:41:15;10.32;;;4.97;;
83245;SDS011;73140;46.754;17.714;2024-01-30T00:43:43;9.63;;;5.07;;
83245;SDS011;73140;46.754;17.714;2024-01-30T00:46:09;10.73;;;5.07;;
83245;SDS011;73140;46.754;17.714;2024-01-30T00:48:35;10.13;;;4.63;;
83245;SDS011;73140;46.754;17.714;2024-01-30T00:51:01;9.52;;;4.80;;
83245;SDS011;73140;46.754;17.714;2024-01-30T00:53:27;13.70;;;5.18;;
83245;SDS011;73140;46.754;17.714;2024-01-30T00:55:54;8.85;;;4.63;;
83245;SDS011;73140;46.754;17.714;2024-01-30T00:58:20;9.52;;;5.07;;
83245;SDS011;73140;46.754;17.714;2024-01-30T01:00:46;8.27;;;4.72;;
83245;SDS011;73140;46.754;17.714;2024-01-30T01:03:12;7.00;;;4.40;;
83245;SDS011;73140;46.754;17.714;2024-01-30T01:05:39;10.48;;;5.50;;
83245;SDS011;73140;46.754;17.714;2024-01-30T01:08:05;10.00;;;5.07;;
83245;SDS011;73140;46.754;17.714;2024-01-30T01:10:32;12.02;;;4.65;;
83245;SDS011;73140;46.754;17.714;2024-01-30T01:12:59;9.85;;;5.20;;
83245;SDS011;73140;46.754;17.714;2024-01-30T01:15:25;9.85;;;5.25;;
83245;SDS011;73140;46.754;17.714;2024-01-30T01:17:51;10.98;;;5.40;;
83245;SDS011;73140;46.754;17.714;2024-01-30T01:20:17;9.38;;;5.07;;
83245;SDS011;73140;46.754;17.714;2024-01-30T01:22:43;10.10;;;5.13;;
83245;SDS011;73140;46.754;17.714;2024-01-30T01:25:09;10.20;;;5.07;;
83245;SDS011;73140;46.754;17.714;2024-01-30T01:27:35;9.10;;;4.72;;
83245;SDS011;73140;46.754;17.714;2024-01-30T01:30:08;7.68;;;4.43;;
83245;SDS011;73140;46.754;17.714;2024-01-30T01:32:35;11.57;;;5.22;;
83245;SDS011;73140;46.754;17.714;2024-01-30T01:35:01;10.32;;;4.88;;
83245;SDS011;73140;46.754;17.714;2024-01-30T01:37:29;10.00;;;4.13;;
83245;SDS011;73140;46.754;17.714;2024-01-30T01:39:55;7.43;;;4.43;;
83245;SDS011;73140;46.754;17.714;2024-01-30T01:42:21;11.02;;;4.75;;
83245;SDS011;73140;46.754;17.714;2024-01-30T01:44:47;9.45;;;4.43;;
83245;SDS011;73140;46.754;17.714;2024-01-30T01:47:15;7.82;;;5.03;;
83245;SDS011;73140;46.754;17.714;2024-01-30T01:49:41;6.80;;;4.45;;
83245;SDS011;73140;46.754;17.714;2024-01-30T01:52:08;10.05;;;5.00;;
83245;SDS011;73140;46.754;17.714;2024-01-30T01:54:34;9.15;;;4.82;;
83245;SDS011;73140;46.754;17.714;2024-01-30T01:57:01;10.80;;;5.13;;
83245;SDS011;73140;46.754;17.714;2024-01-30T01:59:27;10.45;;;5.07;;
83245;SDS011;73140;46.754;17.714;2024-01-30T02:01:54;8.82;;;4.82;;
83245;SDS011;73140;46.754;17.714;2024-01-30T02:04:22;8.15;;;4.63;;
83245;SDS011;73140;46.754;17.714;2024-01-30T02:06:48;10.38;;;4.60;;
83245;SDS011;73140;46.754;17.714;2024-01-30T02:09:15;11.35;;;5.28;;
83245;SDS011;73140;46.754;17.714;2024-01-30T02:11:41;8.15;;;5.00;;
83245;SDS011;73140;46.754;17.714;2024-01-30T02:14:23;11.18;;;4.50;;
83245;SDS011;73140;46.754;17.714;2024-01-30T02:16:49;10.05;;;5.07;;
83245;SDS011;73140;46.754;17.714;2024-01-30T02:19:15;9.13;;;4.13;;
83245;SDS011;73140;46.754;17.714;2024-01-30T02:21:42;9.57;;;4.55;;
83245;SDS011;73140;46.754;17.714;2024-01-30T02:24:09;10.73;;;5.05;;
83245;SDS011;73140;46.754;17.714;2024-01-30T02:26:35;10.70;;;4.50;;
83245;SDS011;73140;46.754;17.714;2024-01-30T02:29:01;10.98;;;4.68;;
83245;SDS011;73140;46.754;17.714;2024-01-30T02:31:27;9.45;;;4.75;;
83245;SDS011;73140;46.754;17.714;2024-01-30T02:33:53;9.52;;;4.82;;
83245;SDS011;73140;46.754;17.714;2024-01-30T02:36:19;12.50;;;5.38;;
83245;SDS011;73140;46.754;17.714;2024-01-30T02:38:46;9.68;;;5.00;;
83245;SDS011;73140;46.754;17.714;2024-01-30T02:41:13;10.93;;;4.47;;
83245;SDS011;73140;46.754;17.714;2024-01-30T02:43:39;10.88;;;4.82;;
83245;SDS011;73140;46.754;17.714;2024-01-30T02:46:05;8.52;;;4.30;;
83245;SDS011;73140;46.754;17.714;2024-01-30T02:48:31;8.38;;;4.72;;
83245;SDS011;73140;46.754;17.714;2024-01-30T02:50:57;10.30;;;5.22;;
83245;SDS011;73140;46.754;17.714;2024-01-30T02:53:23;8.73;;;4.65;;
83245;SDS011;73140;46.754;17.714;2024-01-30T02:55:51;9.23;;;4.72;;
83245;SDS011;73140;46.754;17.714;2024-01-30T02:58:17;8.23;;;4.40;;
83245;SDS011;73140;46.754;17.714;2024-01-30T03:00:43;10.38;;;4.43;;
83245;SDS011;73140;46.754;17.714;2024-01-30T03:03:09;10.63;;;4.70;;
83245;SDS011;73140;46.754;17.714;2024-01-30T03:05:35;9.18;;;4.30;;
83245;SDS011;73140;46.754;17.714;2024-01-30T03:08:01;8.10;;;4.60;;
83245;SDS011;73140;46.754;17.714;2024-01-30T03:10:29;9.93;;;4.32;;
83245;SDS011;73140;46.754;17.714;2024-01-30T03:12:56;9.23;;;4.47;;
83245;SDS011;73140;46.754;17.714;2024-01-30T03:15:22;8.85;;;4.55;;
83245;SDS011;73140;46.754;17.714;2024-01-30T03:17:48;11.48;;;5.10;;
83245;SDS011;73140;46.754;17.714;2024-01-30T03:20:14;9.45;;;4.72;;
83245;SDS011;73140;46.754;17.714;2024-01-30T03:22:40;9.57;;;4.45;;
83245;SDS011;73140;46.754;17.714;2024-01-30T03:25:07;11.13;;;4.60;;
83245;SDS011;73140;46.754;17.714;2024-01-30T03:27:33;14.55;;;6.55;;
83245;SDS011;73140;46.754;17.714;2024-01-30T03:30:00;14.23;;;6.78;;
83245;SDS011;73140;46.754;17.714;2024-01-30T03:32:27;7.97;;;4.70;;
83245;SDS011;73140;46.754;17.714;2024-01-30T03:34:53;16.23;;;8.25;;
83245;SDS011;73140;46.754;17.714;2024-01-30T03:37:19;21.45;;;10.73;;
83245;SDS011;73140;46.754;17.714;2024-01-30T03:39:45;16.70;;;7.63;;
83245;SDS011;73140;46.754;17.714;2024-01-30T03:42:11;10.25;;;5.65;;
83245;SDS011;73140;46.754;17.714;2024-01-30T03:44:37;11.18;;;5.28;;
83245;SDS011;73140;46.754;17.714;2024-01-30T03:47:04;11.13;;;5.45;;
83245;SDS011;73140;46.754;17.714;2024-01-30T03:49:30;13.02;;;5.75;;
83245;SDS011;73140;46.754;17.714;2024-01-30T03:51:56;8.15;;;4.80;;
83245;SDS011;73140;46.754;17.714;2024-01-30T03:54:22;9.30;;;5.25;;
83245;SDS011;73140;46.754;17.714;2024-01-30T03:56:48;10.85;;;5.05;;
83245;SDS011;73140;46.754;17.714;2024-01-30T03:59:14;8.98;;;4.85;;
83245;SDS011;73140;46.754;17.714;2024-01-30T04:01:40;9.13;;;4.93;;
83245;SDS011;73140;46.754;17.714;2024-01-30T04:04:08;10.85;;;5.40;;
83245;SDS011;73140;46.754;17.714;2024-01-30T04:06:34;10.68;;;5.75;;
83245;SDS011;73140;46.754;17.714;2024-01-30T04:09:00;9.88;;;4.93;;
83245;SDS011;73140;46.754;17.714;2024-01-30T04:11:26;9.98;;;5.50;;
83245;SDS011;73140;46.754;17.714;2024-01-30T04:13:52;12.32;;;5.15;;
83245;SDS011;73140;46.754;17.714;2024-01-30T04:16:21;10.20;;;5.07;;
83245;SDS011;73140;46.754;17.714;2024-01-30T04:18:47;11.50;;;5.57;;
83245;SDS011;73140;46.754;17.714;2024-01-30T04:21:15;11.45;;;5.13;;
83245;SDS011;73140;46.754;17.714;2024-01-30T04:23:43;9.30;;;5.03;;
83245;SDS011;73140;46.754;17.714;2024-01-30T04:26:09;9.02;;;4.50;;
83245;SDS011;73140;46.754;17.714;2024-01-30T04:28:35;7.28;;;4.15;;
83245;SDS011;73140;46.754;17.714;2024-01-30T04:31:01;10.10;;;4.60;;
83245;SDS011;73140;46.754;17.714;2024-01-30T04:33:30;10.20;;;4.95;;
83245;SDS011;73140;46.754;17.714;2024-01-30T04:35:56;10.20;;;4.72;;
83245;SDS011;73140;46.754;17.714;2024-01-30T04:38:23;10.73;;;5.05;;
83245;SDS011;73140;46.754;17.714;2024-01-30T04:40:49;10.57;;;5.45;;
83245;SDS011;73140;46.754;17.714;2024-01-30T04:43:15;10.27;;;5.07;;
83245;SDS011;73140;46.754;17.714;2024-01-30T04:45:41;8.70;;;5.40;;
83245;SDS011;73140;46.754;17.714;2024-01-30T04:48:07;11.80;;;5.47;;
83245;SDS011;73140;46.754;17.714;2024-01-30T04:50:33;10.18;;;5.28;;
83245;SDS011;73140;46.754;17.714;2024-01-30T04:53:02;11.05;;;5.03;;
83245;SDS011;73140;46.754;17.714;2024-01-30T04:55:29;8.93;;;4.75;;
83245;SDS011;73140;46.754;17.714;2024-01-30T04:57:55;9.38;;;4.43;;
83245;SDS011;73140;46.754;17.714;2024-01-30T05:00:21;11.98;;;4.82;;
83245;SDS011;73140;46.754;17.714;2024-01-30T05:02:47;11.80;;;5.55;;
83245;SDS011;73140;46.754;17.714;2024-01-30T05:05:13;8.93;;;4.90;;
83245;SDS011;73140;46.754;17.714;2024-01-30T05:07:41;9.48;;;5.15;;
83245;SDS011;73140;46.754;17.714;2024-01-30T05:10:07;9.35;;;4.80;;
83245;SDS011;73140;46.754;17.714;2024-01-30T05:12:35;9.55;;;4.88;;
83245;SDS011;73140;46.754;17.714;2024-01-30T05:15:01;9.88;;;4.88;;
83245;SDS011;73140;46.754;17.714;2024-01-30T05:17:27;9.95;;;4.80;;
83245;SDS011;73140;46.754;17.714;2024-01-30T05:19:53;8.00;;;4.60;;
83245;SDS011;73140;46.754;17.714;2024-01-30T05:22:19;10.95;;;5.72;;
83245;SDS011;73140;46.754;17.714;2024-01-30T05:24:45;12.10;;;5.68;;
83245;SDS011;73140;46.754;17.714;2024-01-30T05:27:11;12.50;;;5.78;;
83245;SDS011;73140;46.754;17.714;2024-01-30T05:29:42;10.57;;;5.35;;
83245;SDS011;73140;46.754;17.714;2024-01-30T05:32:08;10.55;;;5.05;;
83245;SDS011;73140;46.754;17.714;2024-01-30T05:34:35;9.43;;;5.25;;
83245;SDS011;73140;46.754;17.714;2024-01-30T05:37:03;9.70;;;5.28;;
83245;SDS011;73140;46.754;17.714;2024-01-30T05:39:29;11.48;;;5.47;;
83245;SDS011;73140;46.754;17.714;2024-01-30T05:41:58;10.25;;;5.47;;
83245;SDS011;73140;46.754;17.714;2024-01-30T05:44:26;10.75;;;5.40;;
83245;SDS011;73140;46.754;17.714;2024-01-30T05:46:54;9.50;;;5.10;;
83245;SDS011;73140;46.754;17.714;2024-01-30T05:49:20;11.43;;;5.35;;
83245;SDS011;73140;46.754;17.714;2024-01-30T05:51:46;10.27;;;5.22;;
83245;SDS011;73140;46.754;17.714;2024-01-30T05:54:15;11.73;;;5.30;;
83245;SDS011;73140;46.754;17.714;2024-01-30T05:56:43;9.63;;;5.03;;
83245;SDS011;73140;46.754;17.714;2024-01-30T05:59:11;9.68;;;4.95;;
83245;SDS011;73140;46.754;17.714;2024-01-30T06:01:37;10.32;;;4.95;;
83245;SDS011;73140;46.754;17.714;2024-01-30T06:04:04;9.90;;;5.32;;
83245;SDS011;73140;46.754;17.714;2024-01-30T06:06:30;12.05;;;5.28;;
83245;SDS011;73140;46.754;17.714;2024-01-30T06:08:56;10.32;;;4.88;;
83245;SDS011;73140;46.754;17.714;2024-01-30T06:11:22;11.60;;;5.18;;
83245;SDS011;73140;46.754;17.714;2024-01-30T06:13:50;10.30;;;4.53;;
83245;SDS011;73140;46.754;17.714;2024-01-30T06:16:16;8.98;;;4.55;;
83245;SDS011;73140;46.754;17.714;2024-01-30T06:18:42;8.02;;;4.53;;
83245;SDS011;73140;46.754;17.714;2024-01-30T06:21:09;11.13;;;5.85;;
83245;SDS011;73140;46.754;17.714;2024-01-30T06:23:35;10.15;;;5.32;;
83245;SDS011;73140;46.754;17.714;2024-01-30T06:26:01;9.60;;;5.20;;
83245;SDS011;73140;46.754;17.714;2024-01-30T06:28:27;12.93;;;5.07;;
83245;SDS011;73140;46.754;17.714;2024-01-30T06:30:53;10.32;;;4.72;;
83245;SDS011;73140;46.754;17.714;2024-01-30T06:33:19;11.35;;;5.93;;
83245;SDS011;73140;46.754;17.714;2024-01-30T06:35:48;9.32;;;5.22;;
83245;SDS011;73140;46.754;17.714;2024-01-30T06:38:15;12.80;;;7.35;;
83245;SDS011;73140;46.754;17.714;2024-01-30T06:40:41;10.52;;;5.90;;
83245;SDS011;73140;46.754;17.714;2024-01-30T06:43:07;9.43;;;5.25;;
83245;SDS011;73140;46.754;17.714;2024-01-30T06:45:34;12.40;;;6.13;;
83245;SDS011;73140;46.754;17.714;2024-01-30T06:48:00;9.32;;;5.15;;
83245;SDS011;73140;46.754;17.714;2024-01-30T06:50:26;9.50;;;4.93;;
83245;SDS011;73140;46.754;17.714;2024-01-30T06:52:52;12.73;;;5.40;;
83245;SDS011;73140;46.754;17.714;2024-01-30T06:55:20;10.68;;;5.45;;
83245;SDS011;73140;46.754;17.714;2024-01-30T06:57:49;12.93;;;6.07;;
83245;SDS011;73140;46.754;17.714;2024-01-30T07:00:15;11.98;;;5.95;;
83245;SDS011;73140;46.754;17.714;2024-01-30T07:02:42;9.77;;;5.40;;
83245;SDS011;73140;46.754;17.714;2024-01-30T07:05:08;11.38;;;6.18;;
83245;SDS011;73140;46.754;17.714;2024-01-30T07:07:36;14.02;;;6.53;;
83245;SDS011;73140;46.754;17.714;2024-01-30T07:10:02;12.35;;;6.25;;
83245;SDS011;73140;46.754;17.714;2024-01-30T07:12:31;13.00;;;6.35;;
83245;SDS011;73140;46.754;17.714;2024-01-30T07:14:57;13.73;;;6.97;;
83245;SDS011;73140;46.754;17.714;2024-01-30T07:17:25;12.75;;;6.05;;
83245;SDS011;73140;46.754;17.714;2024-01-30T07:19:51;12.73;;;6.50;;
83245;SDS011;73140;46.754;17.714;2024-01-30T07:22:17;13.57;;;7.10;;
83245;SDS011;73140;46.754;17.714;2024-01-30T07:24:43;12.57;;;7.32;;
83245;SDS011;73140;46.754;17.714;2024-01-30T07:27:13;14.73;;;7.72;;
83245;SDS011;73140;46.754;17.714;2024-01-30T07:29:41;12.15;;;7.45;;
83245;SDS011;73140;46.754;17.714;2024-01-30T07:32:07;13.80;;;6.93;;
83245;SDS011;73140;46.754;17.714;2024-01-30T07:34:33;11.82;;;7.05;;
83245;SDS011;73140;46.754;17.714;2024-01-30T07:37:04;16.52;;;7.88;;
83245;SDS011;73140;46.754;17.714;2024-01-30T07:39:30;16.02;;;8.20;;
83245;SDS011;73140;46.754;17.714;2024-01-30T07:41:56;14.85;;;8.27;;
83245;SDS011;73140;46.754;17.714;2024-01-30T07:44:22;13.20;;;8.40;;
83245;SDS011;73140;46.754;17.714;2024-01-30T07:46:50;12.80;;;7.65;;
83245;SDS011;73140;46.754;17.714;2024-01-30T07:49:16;12.93;;;8.13;;
83245;SDS011;73140;46.754;17.714;2024-01-30T07:51:42;18.23;;;10.38;;
83245;SDS011;73140;46.754;17.714;2024-01-30T07:54:14;18.98;;;11.45;;
83245;SDS011;73140;46.754;17.714;2024-01-30T07:56:40;18.92;;;10.93;;
83245;SDS011;73140;46.754;17.714;2024-01-30T07:59:09;22.10;;;11.32;;
83245;SDS011;73140;46.754;17.714;2024-01-30T08:01:35;21.42;;;11.70;;
83245;SDS011;73140;46.754;17.714;2024-01-30T08:04:02;21.08;;;11.10;;
83245;SDS011;73140;46.754;17.714;2024-01-30T08:06:29;21.20;;;11.43;;
83245;SDS011;73140;46.754;17.714;2024-01-30T08:08:55;20.67;;;12.43;;
83245;SDS011;73140;46.754;17.714;2024-01-30T08:11:22;23.20;;;13.23;;
83245;SDS011;73140;46.754;17.714;2024-01-30T08:13:52;20.98;;;11.77;;
83245;SDS011;73140;46.754;17.714;2024-01-30T08:16:18;17.80;;;10.48;;
83245;SDS011;73140;46.754;17.714;2024-01-30T08:18:44;19.85;;;12.32;;
83245;SDS011;73140;46.754;17.714;2024-01-30T08:21:12;18.65;;;10.40;;
83245;SDS011;73140;46.754;17.714;2024-01-30T08:23:38;18.98;;;10.48;;
83245;SDS011;73140;46.754;17.714;2024-01-30T08:26:04;15.82;;;8.52;;
83245;SDS011;73140;46.754;17.714;2024-01-30T08:28:31;15.05;;;8.20;;
83245;SDS011;73140;46.754;17.714;2024-01-30T08:30:57;14.57;;;8.85;;
83245;SDS011;73140;46.754;17.714;2024-01-30T08:33:23;16.25;;;9.48;;
83245;SDS011;73140;46.754;17.714;2024-01-30T08:35:49;21.00;;;9.90;;
83245;SDS011;73140;46.754;17.714;2024-01-30T08:38:17;16.40;;;9.20;;
83245;SDS011;73140;46.754;17.714;2024-01-30T08:40:43;16.70;;;8.00;;
83245;SDS011;73140;46.754;17.714;2024-01-30T08:43:09;15.43;;;7.88;;
83245;SDS011;73140;46.754;17.714;2024-01-30T08:45:35;14.40;;;7.78;;
83245;SDS011;73140;46.754;17.714;2024-01-30T08:48:01;13.35;;;6.57;;
83245;SDS011;73140;46.754;17.714;2024-01-30T08:50:28;14.25;;;8.05;;
83245;SDS011;73140;46.754;17.714;2024-01-30T08:52:55;16.27;;;7.65;;
83245;SDS011;73140;46.754;17.714;2024-01-30T08:55:23;12.52;;;7.25;;
83245;SDS011;73140;46.754;17.714;2024-01-30T08:57:49;15.43;;;7.97;;
83245;SDS011;73140;46.754;17.714;2024-01-30T09:00:15;13.13;;;6.90;;
83245;SDS011;73140;46.754;17.714;2024-01-30T09:02:42;16.83;;;8.02;;
83245;SDS011;73140;46.754;17.714;2024-01-30T09:05:08;14.30;;;6.80;;
83245;SDS011;73140;46.754;17.714;2024-01-30T09:07:36;12.07;;;6.93;;
83245;SDS011;73140;46.754;17.714;2024-01-30T09:10:02;11.05;;;6.70;;
83245;SDS011;73140;46.754;17.714;2024-01-30T09:12:30;13.18;;;7.28;;
83245;SDS011;73140;46.754;17.714;2024-01-30T09:14:56;14.95;;;7.28;;
83245;SDS011;73140;46.754;17.714;2024-01-30T09:17:22;11.88;;;7.45;;
83245;SDS011;73140;46.754;17.714;2024-01-30T09:19:49;11.45;;;6.60;;
83245;SDS011;73140;46.754;17.714;2024-01-30T09:22:15;11.18;;;6.60;;
83245;SDS011;73140;46.754;17.714;2024-01-30T09:24:41;12.45;;;6.88;;
83245;SDS011;73140;46.754;17.714;2024-01-30T09:27:07;11.27;;;7.05;;
83245;SDS011;73140;46.754;17.714;2024-01-30T09:29:34;12.82;;;7.10;;
83245;SDS011;73140;46.754;17.714;2024-01-30T09:32:01;13.15;;;6.78;;
83245;SDS011;73140;46.754;17.714;2024-01-30T09:34:29;12.68;;;7.47;;
83245;SDS011;73140;46.754;17.714;2024-01-30T09:36:55;13.60;;;7.70;;
83245;SDS011;73140;46.754;17.714;2024-01-30T09:39:21;11.48;;;6.72;;
83245;SDS011;73140;46.754;17.714;2024-01-30T09:41:48;13.95;;;7.15;;
83245;SDS011;73140;46.754;17.714;2024-01-30T09:44:22;14.40;;;7.47;;
83245;SDS011;73140;46.754;17.714;2024-01-30T09:46:52;10.80;;;6.82;;
83245;SDS011;73140;46.754;17.714;2024-01-30T09:49:18;13.88;;;7.60;;
83245;SDS011;73140;46.754;17.714;2024-01-30T09:51:45;13.20;;;7.72;;
83245;SDS011;73140;46.754;17.714;2024-01-30T09:54:13;12.82;;;7.05;;
83245;SDS011;73140;46.754;17.714;2024-01-30T09:56:40;11.32;;;6.88;;
83245;SDS011;73140;46.754;17.714;2024-01-30T09:59:06;9.90;;;6.35;;
83245;SDS011;73140;46.754;17.714;2024-01-30T10:01:33;8.38;;;5.30;;
83245;SDS011;73140;46.754;17.714;2024-01-30T10:04:02;10.18;;;5.65;;
83245;SDS011;73140;46.754;17.714;2024-01-30T10:06:28;11.68;;;6.20;;
83245;SDS011;73140;46.754;17.714;2024-01-30T10:08:55;10.25;;;5.25;;
83245;SDS011;73140;46.754;17.714;2024-01-30T10:11:21;10.55;;;6.43;;
83245;SDS011;73140;46.754;17.714;2024-01-30T10:13:47;10.10;;;6.20;;
83245;SDS011;73140;46.754;17.714;2024-01-30T10:16:13;11.70;;;6.20;;
83245;SDS011;73140;46.754;17.714;2024-01-30T10:18:41;9.95;;;6.03;;
83245;SDS011;73140;46.754;17.714;2024-01-30T10:21:08;10.02;;;6.03;;
83245;SDS011;73140;46.754;17.714;2024-01-30T10:23:35;12.38;;;7.43;;
83245;SDS011;73140;46.754;17.714;2024-01-30T10:26:02;13.15;;;6.90;;
83245;SDS011;73140;46.754;17.714;2024-01-30T10:28:29;9.63;;;5.72;;
83245;SDS011;73140;46.754;17.714;2024-01-30T10:30:59;7.32;;;4.53;;
83245;SDS011;73140;46.754;17.714;2024-01-30T10:33:25;9.00;;;5.80;;
83245;SDS011;73140;46.754;17.714;2024-01-30T10:35:54;8.63;;;5.20;;
83245;SDS011;73140;46.754;17.714;2024-01-30T10:38:27;8.45;;;4.75;;
83245;SDS011;73140;46.754;17.714;2024-01-30T10:40:55;8.05;;;4.35;;
83245;SDS011;73140;46.754;17.714;2024-01-30T10:43:23;8.45;;;4.32;;
83245;SDS011;73140;46.754;17.714;2024-01-30T10:45:56;8.10;;;4.15;;
83245;SDS011;73140;46.754;17.714;2024-01-30T10:48:30;7.35;;;4.60;;
83245;SDS011;73140;46.754;17.714;2024-01-30T10:51:02;10.45;;;5.03;;
83245;SDS011;73140;46.754;17.714;2024-01-30T10:53:35;9.10;;;4.53;;
83245;SDS011;73140;46.754;17.714;2024-01-30T10:56:02;10.02;;;4.65;;
83245;SDS011;73140;46.754;17.714;2024-01-30T10:58:30;7.13;;;4.47;;
83245;SDS011;73140;46.754;17.714;2024-01-30T11:00:56;7.90;;;4.65;;
83245;SDS011;73140;46.754;17.714;2024-01-30T11:03:23;6.55;;;4.32;;
83245;SDS011;73140;46.754;17.714;2024-01-30T11:05:50;9.43;;;5.00;;
83245;SDS011;73140;46.754;17.714;2024-01-30T11:08:22;9.00;;;5.10;;
83245;SDS011;73140;46.754;17.714;2024-01-30T11:10:54;10.35;;;4.93;;
83245;SDS011;73140;46.754;17.714;2024-01-30T11:13:21;9.77;;;4.80;;
83245;SDS011;73140;46.754;17.714;2024-01-30T11:15:47;8.40;;;5.00;;
83245;SDS011;73140;46.754;17.714;2024-01-30T11:18:22;8.77;;;5.20;;
83245;SDS011;73140;46.754;17.714;2024-01-30T11:20:48;10.05;;;5.47;;
83245;SDS011;73140;46.754;17.714;2024-01-30T11:23:14;9.50;;;4.90;;
83245;SDS011;73140;46.754;17.714;2024-01-30T11:25:40;8.65;;;4.50;;
83245;SDS011;73140;46.754;17.714;2024-01-30T11:28:14;8.82;;;5.43;;
83245;SDS011;73140;46.754;17.714;2024-01-30T11:30:44;9.55;;;5.45;;
83245;SDS011;73140;46.754;17.714;2024-01-30T11:33:16;7.70;;;4.70;;
83245;SDS011;73140;46.754;17.714;2024-01-30T11:35:53;8.55;;;5.20;;
83245;SDS011;73140;46.754;17.714;2024-01-30T11:38:19;8.50;;;5.28;;
83245;SDS011;73140;46.754;17.714;2024-01-30T11:40:46;11.73;;;5.80;;
83245;SDS011;73140;46.754;17.714;2024-01-30T11:43:15;10.82;;;5.60;;
83245;SDS011;73140;46.754;17.714;2024-01-30T11:45:44;8.70;;;5.40;;
83245;SDS011;73140;46.754;17.714;2024-01-30T11:48:11;8.50;;;5.47;;
83245;SDS011;73140;46.754;17.714;2024-01-30T11:50:37;8.23;;;5.18;;
83245;SDS011;73140;46.754;17.714;2024-01-30T11:53:05;8.88;;;5.43;;
83245;SDS011;73140;46.754;17.714;2024-01-30T11:55:31;8.48;;;5.20;;
83245;SDS011;73140;46.754;17.714;2024-01-30T11:57:57;8.82;;;5.18;;
83245;SDS011;73140;46.754;17.714;2024-01-30T12:00:25;8.27;;;5.15;;
83245;SDS011;73140;46.754;17.714;2024-01-30T12:02:52;8.55;;;5.50;;
83245;SDS011;73140;46.754;17.714;2024-01-30T12:05:21;8.73;;;5.03;;
83245;SDS011;73140;46.754;17.714;2024-01-30T12:07:47;8.48;;;4.68;;
83245;SDS011;73140;46.754;17.714;2024-01-30T12:10:13;7.85;;;4.60;;
83245;SDS011;73140;46.754;17.714;2024-01-30T12:12:40;10.23;;;5.13;;
83245;SDS011;73140;46.754;17.714;2024-01-30T12:15:08;10.25;;;5.80;;
83245;SDS011;73140;46.754;17.714;2024-01-30T12:17:37;9.43;;;5.53;;
83245;SDS011;73140;46.754;17.714;2024-01-30T12:20:03;10.20;;;5.05;;
83245;SDS011;73140;46.754;17.714;2024-01-30T12:22:33;10.07;;;5.55;;
83245;SDS011;73140;46.754;17.714;2024-01-30T12:25:01;9.00;;;5.47;;
83245;SDS011;73140;46.754;17.714;2024-01-30T12:27:27;9.43;;;5.53;;
83245;SDS011;73140;46.754;17.714;2024-01-30T12:29:56;11.30;;;6.63;;
83245;SDS011;73140;46.754;17.714;2024-01-30T12:32:23;9.35;;;5.32;;
83245;SDS011;73140;46.754;17.714;2024-01-30T12:34:54;11.80;;;6.25;;
83245;SDS011;73140;46.754;17.714;2024-01-30T12:37:21;12.40;;;6.22;;
83245;SDS011;73140;46.754;17.714;2024-01-30T12:39:48;9.73;;;5.82;;
83245;SDS011;73140;46.754;17.714;2024-01-30T12:42:14;11.68;;;5.90;;
83245;SDS011;73140;46.754;17.714;2024-01-30T12:44:40;10.15;;;5.90;;
83245;SDS011;73140;46.754;17.714;2024-01-30T12:47:08;10.60;;;5.70;;
83245;SDS011;73140;46.754;17.714;2024-01-30T12:49:35;10.35;;;5.78;;
83245;SDS011;73140;46.754;17.714;2024-01-30T12:52:02;8.52;;;5.15;;
83245;SDS011;73140;46.754;17.714;2024-01-30T12:54:29;9.15;;;4.90;;
83245;SDS011;73140;46.754;17.714;2024-01-30T12:56:55;10.68;;;5.43;;
83245;SDS011;73140;46.754;17.714;2024-01-30T12:59:21;10.00;;;5.13;;
83245;SDS011;73140;46.754;17.714;2024-01-30T13:01:48;7.90;;;5.32;;
83245;SDS011;73140;46.754;17.714;2024-01-30T13:04:14;9.73;;;6.15;;
83245;SDS011;73140;46.754;17.714;2024-01-30T13:06:42;9.45;;;5.40;;
83245;SDS011;73140;46.754;17.714;2024-01-30T13:09:10;12.98;;;6.47;;
83245;SDS011;73140;46.754;17.714;2024-01-30T13:11:39;8.93;;;5.57;;
83245;SDS011;73140;46.754;17.714;2024-01-30T13:14:05;8.85;;;5.25;;
83245;SDS011;73140;46.754;17.714;2024-01-30T13:16:31;10.18;;;5.18;;
83245;SDS011;73140;46.754;17.714;2024-01-30T13:18:57;9.18;;;5.45;;
83245;SDS011;73140;46.754;17.714;2024-01-30T13:21:23;10.85;;;6.03;;
83245;SDS011;73140;46.754;17.714;2024-01-30T13:23:49;8.75;;;5.60;;
83245;SDS011;73140;46.754;17.714;2024-01-30T13:26:20;9.35;;;4.90;;
83245;SDS011;73140;46.754;17.714;2024-01-30T13:28:47;10.77;;;5.93;;
83245;SDS011;73140;46.754;17.714;2024-01-30T13:31:13;12.13;;;6.20;;
83245;SDS011;73140;46.754;17.714;2024-01-30T13:33:40;9.18;;;5.45;;
83245;SDS011;73140;46.754;17.714;2024-01-30T13:36:15;10.60;;;6.20;;
83245;SDS011;73140;46.754;17.714;2024-01-30T13:38:41;10.07;;;5.60;;
83245;SDS011;73140;46.754;17.714;2024-01-30T13:41:07;9.45;;;5.55;;
83245;SDS011;73140;46.754;17.714;2024-01-30T13:43:35;9.82;;;6.00;;
83245;SDS011;73140;46.754;17.714;2024-01-30T13:46:01;9.27;;;5.03;;
83245;SDS011;73140;46.754;17.714;2024-01-30T13:48:27;16.05;;;9.27;;
83245;SDS011;73140;46.754;17.714;2024-01-30T13:50:53;14.95;;;8.82;;
83245;SDS011;73140;46.754;17.714;2024-01-30T13:53:19;11.50;;;7.45;;
83245;SDS011;73140;46.754;17.714;2024-01-30T13:55:46;9.48;;;5.90;;
83245;SDS011;73140;46.754;17.714;2024-01-30T13:58:12;10.55;;;5.93;;
83245;SDS011;73140;46.754;17.714;2024-01-30T14:00:40;10.98;;;6.38;;
83245;SDS011;73140;46.754;17.714;2024-01-30T14:03:06;10.73;;;5.57;;
83245;SDS011;73140;46.754;17.714;2024-01-30T14:05:32;12.15;;;5.68;;
83245;SDS011;73140;46.754;17.714;2024-01-30T14:07:58;7.90;;;5.22;;
83245;SDS011;73140;46.754;17.714;2024-01-30T14:10:25;10.20;;;5.03;;
83245;SDS011;73140;46.754;17.714;2024-01-30T14:12:51;10.20;;;5.93;;
83245;SDS011;73140;46.754;17.714;2024-01-30T14:15:17;9.73;;;5.18;;
83245;SDS011;73140;46.754;17.714;2024-01-30T14:17:45;11.65;;;5.90;;
83245;SDS011;73140;46.754;17.714;2024-01-30T14:20:16;9.77;;;5.78;;
83245;SDS011;73140;46.754;17.714;2024-01-30T14:22:45;9.13;;;5.95;;
83245;SDS011;73140;46.754;17.714;2024-01-30T14:25:13;14.57;;;6.10;;